Time;durP1;ratioP1;P1;durP2;ratioP2;P2;SDS_P1;SDS_P2;PMS_P1;PMS_P2;Temp;Humidity;BMP_temperature;BMP_pressure;BME280_temperature;BME280_humidity;BME280_pressure;Samples;Min_cycle;Max_cycle;Signal;HPM_P1;HPM_P2
2023/04/08 00:01:32;;;;;;;0.40;0.40;;;;;;;8.99;79.23;97174.25;4971819;28;20089;-60
2023/04/08 00:03:59;;;;;;;0.40;0.40;;;;;;;9.00;78.46;97181.38;4972757;28;20351;-61
2023/04/08 00:06:26;;;;;;;0.40;0.40;;;;;;;9.00;76.88;97203.47;4973988;28;20046;-61
2023/04/08 00:08:52;;;;;;;0.40;0.40;;;;;;;8.41;76.02;97082.03;4972729;28;20051;-61
2023/04/08 00:11:19;;;;;;;0.40;0.40;;;;;;;9.07;76.20;97193.41;4970130;28;20491;-61
2023/04/08 00:13:46;;;;;;;0.40;0.40;;;;;;;9.14;74.89;97184.50;4972630;28;20612;-60
2023/04/08 00:16:12;;;;;;;0.40;0.40;;;;;;;8.84;75.20;97119.81;4972061;28;20047;-62
2023/04/08 00:18:41;;;;;;;0.40;0.40;;;;;;;9.10;75.45;97186.38;4972864;28;20054;-62
2023/04/08 00:21:08;;;;;;;0.50;0.50;;;;;;;8.97;76.27;97160.00;4972200;28;20090;-63
2023/04/08 00:23:35;;;;;;;0.40;0.40;;;;;;;9.08;76.47;97183.97;4970318;28;20077;-62
2023/04/08 00:26:01;;;;;;;0.40;0.40;;;;;;;8.92;76.21;97163.84;4969474;28;20077;-61
2023/04/08 00:28:28;;;;;;;0.40;0.40;;;;;;;9.13;75.08;97180.13;4973713;28;20529;-61
2023/04/08 00:30:56;;;;;;;0.40;0.40;;;;;;;8.76;77.34;97176.03;4972539;28;20058;-61
2023/04/08 00:33:24;;;;;;;0.40;0.40;;;;;;;8.86;76.15;97156.97;4974641;28;20105;-61
2023/04/08 00:35:54;;;;;;;0.40;0.40;;;;;;;8.43;76.19;97096.28;4972555;28;20066;-72
2023/04/08 00:38:21;;;;;;;0.43;0.43;;;;;;;9.07;77.46;97182.34;4972970;28;20058;-72
2023/04/08 00:40:48;;;;;;;0.40;0.40;;;;;;;8.74;77.34;97117.59;4976320;28;20440;-72
2023/04/08 00:43:15;;;;;;;0.50;0.50;;;;;;;9.24;76.71;97181.19;4978264;28;20100;-72
2023/04/08 00:45:42;;;;;;;0.40;0.40;;;;;;;9.25;76.47;97180.03;4974915;28;20426;-72
2023/04/08 00:48:09;;;;;;;0.50;0.50;;;;;;;9.29;76.78;97177.34;4975499;28;20140;-72
2023/04/08 00:50:35;;;;;;;0.40;0.40;;;;;;;9.20;77.07;97174.75;4973640;28;20109;-72
2023/04/08 00:53:02;;;;;;;0.40;0.40;;;;;;;9.18;77.20;97172.38;4972498;28;20062;-72
2023/04/08 00:55:29;;;;;;;0.40;0.40;;;;;;;8.88;77.85;97135.31;4975642;28;20136;-72
2023/04/08 00:57:57;;;;;;;0.40;0.40;;;;;;;9.22;77.20;97172.44;4979459;28;20511;-70
2023/04/08 01:00:24;;;;;;;0.40;0.40;;;;;;;8.94;77.97;97182.81;4973181;28;20537;-71
2023/04/08 01:02:51;;;;;;;0.38;0.38;;;;;;;8.99;77.49;97168.75;4973087;28;20441;-70
2023/04/08 01:06:04;;;;;;;0.40;0.40;;;;;;;9.05;78.65;97170.06;4972390;28;20058;-71
2023/04/08 01:08:35;;;;;;;0.40;0.40;;;;;;;9.02;79.63;97174.34;4985897;28;20320;-71
2023/04/08 01:11:04;;;;;;;0.40;0.40;;;;;;;8.98;80.81;97175.41;4986160;28;20093;-71
2023/04/08 01:13:35;;;;;;;0.40;0.40;;;;;;;8.91;80.10;97183.53;4986111;28;20113;-71
2023/04/08 01:16:02;;;;;;;0.43;0.43;;;;;;;8.18;78.70;97060.88;4984217;28;20066;-72
2023/04/08 01:18:30;;;;;;;0.40;0.40;;;;;;;9.02;77.60;97212.22;4985945;28;20432;-70
2023/04/08 01:20:59;;;;;;;0.50;0.50;;;;;;;8.54;77.96;97133.25;4985416;28;20096;-71
2023/04/08 01:23:42;;;;;;;0.40;0.40;;;;;;;9.08;79.10;97194.22;4985892;28;20054;-70
2023/04/08 01:26:12;;;;;;;0.40;0.40;;;;;;;9.04;78.28;97187.81;4985725;28;20102;-72
2023/04/08 01:28:40;;;;;;;0.40;0.40;;;;;;;8.78;77.93;97190.28;4986050;28;20128;-70
2023/04/08 01:31:07;;;;;;;0.40;0.40;;;;;;;8.71;76.70;97174.31;4985480;28;20050;-72
2023/04/08 01:33:35;;;;;;;0.50;0.50;;;;;;;8.27;75.63;97105.69;4986128;28;20540;-71
2023/04/08 01:36:02;;;;;;;0.40;0.40;;;;;;;8.12;76.84;97089.91;4985391;28;20050;-71
2023/04/08 01:38:30;;;;;;;0.40;0.40;;;;;;;8.71;76.25;97188.13;4985491;28;20568;-71
2023/04/08 01:40:57;;;;;;;0.40;0.40;;;;;;;8.27;76.67;97134.09;4985895;28;20673;-71
2023/04/08 01:43:26;;;;;;;0.40;0.40;;;;;;;8.56;77.99;97188.13;4985863;28;20058;-70
2023/04/08 01:45:56;;;;;;;0.40;0.40;;;;;;;8.17;76.69;97122.75;4983810;28;20150;-72
2023/04/08 01:48:24;;;;;;;0.40;0.40;;;;;;;8.66;77.19;97195.91;4985277;28;20470;-72
2023/04/08 01:50:52;;;;;;;0.40;0.40;;;;;;;8.60;77.60;97189.81;4983444;28;20497;-71
2023/04/08 01:53:19;;;;;;;0.40;0.40;;;;;;;8.55;76.94;97169.97;4983867;28;20312;-70
2023/04/08 01:55:50;;;;;;;0.47;0.47;;;;;;;8.23;77.13;97140.69;4985175;28;20092;-70
2023/04/08 01:58:20;;;;;;;0.40;0.40;;;;;;;8.61;76.41;97193.38;4985052;28;20167;-70
2023/04/08 02:00:48;;;;;;;0.40;0.40;;;;;;;8.52;77.03;97149.38;4985323;28;20109;-72
2023/04/08 02:03:18;;;;;;;0.40;0.40;;;;;;;8.74;76.33;97189.41;4983738;28;20231;-71
2023/04/08 02:05:45;;;;;;;0.50;0.50;;;;;;;8.66;76.52;97177.34;4984984;28;20094;-71
2023/04/08 02:08:12;;;;;;;0.50;0.50;;;;;;;8.85;76.27;97201.53;4983053;28;20365;-71
2023/04/08 02:10:39;;;;;;;0.40;0.40;;;;;;;8.81;75.97;97195.09;4983489;28;20065;-70
2023/04/08 02:13:07;;;;;;;0.40;0.40;;;;;;;8.65;76.29;97197.03;4983816;28;20050;-71
2023/04/08 02:15:37;;;;;;;0.40;0.40;;;;;;;8.66;76.41;97195.91;4984917;28;20054;-72
2023/04/08 02:18:16;;;;;;;0.40;0.40;;;;;;;8.69;76.55;97192.41;4985076;28;20073;-72
2023/04/08 02:20:49;;;;;;;0.40;0.40;;;;;;;7.83;76.04;97063.50;4983384;28;20599;-72
2023/04/08 02:23:21;;;;;;;0.40;0.40;;;;;;;8.07;77.11;97101.19;4982926;28;20502;-70
2023/04/08 02:25:49;;;;;;;0.40;0.40;;;;;;;8.41;77.45;97153.03;4984535;28;20050;-71
2023/04/08 02:28:17;;;;;;;0.40;0.40;;;;;;;8.72;77.21;97203.56;4976815;28;20042;-71
2023/04/08 02:30:53;;;;;;;0.50;0.50;;;;;;;8.60;77.04;97200.06;4965271;28;20094;-72
2023/04/08 02:33:22;;;;;;;0.40;0.40;;;;;;;8.73;76.86;97201.59;4965251;28;20058;-71
2023/04/08 02:35:53;;;;;;;0.40;0.40;;;;;;;8.61;77.22;97198.91;4965083;28;20047;-71
2023/04/08 02:38:20;;;;;;;0.40;0.40;;;;;;;8.40;77.05;97151.41;4965232;28;20546;-72
2023/04/08 02:40:49;;;;;;;0.40;0.40;;;;;;;8.75;77.08;97196.53;4963734;28;20133;-71
2023/04/08 02:43:16;;;;;;;0.40;0.40;;;;;;;8.74;75.95;97194.94;4963942;28;20058;-71
2023/04/08 02:45:44;;;;;;;0.40;0.40;;;;;;;8.87;76.26;97199.19;4964663;28;20117;-71
2023/04/08 02:48:11;;;;;;;0.40;0.40;;;;;;;8.71;76.22;97179.06;4963935;28;20062;-72
2023/04/08 02:50:38;;;;;;;0.40;0.40;;;;;;;8.85;76.93;97209.81;4963330;28;20101;-71
2023/04/08 02:53:06;;;;;;;0.40;0.40;;;;;;;8.89;76.59;97213.47;4979639;28;20058;-71
2023/04/08 02:55:32;;;;;;;0.40;0.40;;;;;;;8.88;77.37;97218.16;4964193;28;20050;-71
2023/04/08 02:57:59;;;;;;;0.47;0.47;;;;;;;8.82;77.43;97210.53;4976153;28;20087;-71
2023/04/08 03:00:26;;;;;;;0.50;0.50;;;;;;;8.73;77.16;97205.16;4983773;28;20089;-71
2023/04/08 03:02:53;;;;;;;0.40;0.40;;;;;;;8.89;77.54;97213.47;4983384;28;20049;-69
2023/04/08 03:05:20;;;;;;;0.40;0.40;;;;;;;8.92;77.47;97223.78;4983787;28;20060;-70
2023/04/08 03:07:47;;;;;;;0.43;0.43;;;;;;;8.57;79.03;97178.66;4983055;28;20597;-71
2023/04/08 03:10:13;;;;;;;0.50;0.50;;;;;;;8.70;79.36;97194.00;4983965;28;20141;-71
2023/04/08 03:12:40;;;;;;;0.50;0.50;;;;;;;8.82;79.26;97219.59;4984282;28;20388;-72
2023/04/08 03:15:07;;;;;;;0.40;0.40;;;;;;;8.29;80.00;97158.59;4982503;28;20425;-72
2023/04/08 03:17:34;;;;;;;0.40;0.40;;;;;;;8.75;79.86;97215.84;4984491;28;20061;-70
2023/04/08 03:20:03;;;;;;;0.40;0.40;;;;;;;8.77;80.63;97222.63;4982434;28;20527;-72
2023/04/08 03:22:30;;;;;;;0.40;0.40;;;;;;;8.36;82.20;97214.00;4983945;28;20058;-72
2023/04/08 03:24:57;;;;;;;0.40;0.40;;;;;;;8.33;82.83;97211.94;4982484;28;20054;-68
2023/04/08 03:27:24;;;;;;;0.40;0.40;;;;;;;8.05;81.92;97156.72;4984213;28;20050;-72
2023/04/08 03:29:51;;;;;;;0.40;0.40;;;;;;;8.50;82.06;97229.00;4983752;28;20054;-72
2023/04/08 03:32:19;;;;;;;0.50;0.50;;;;;;;7.66;82.23;97116.19;4982515;28;20062;-68
2023/04/08 03:34:45;;;;;;;0.40;0.40;;;;;;;7.45;83.96;97199.03;4983569;28;20058;-72
2023/04/08 03:37:12;;;;;;;0.30;0.30;;;;;;;7.67;85.25;97239.91;4983941;28;20054;-71
2023/04/08 03:39:39;;;;;;;0.40;0.40;;;;;;;7.97;85.29;97253.38;4983344;28;20393;-72
2023/04/08 03:42:06;;;;;;;0.40;0.40;;;;;;;8.19;83.95;97245.41;4982323;28;20061;-72
2023/04/08 03:44:32;;;;;;;0.40;0.40;;;;;;;8.02;83.79;97247.63;4983671;28;20080;-72
2023/04/08 03:46:59;;;;;;;0.40;0.40;;;;;;;8.26;84.09;97239.31;4983947;28;20097;-73
2023/04/08 03:49:25;;;;;;;0.40;0.40;;;;;;;8.08;83.72;97177.28;4982539;28;20488;-72
2023/04/08 03:51:52;;;;;;;0.40;0.40;;;;;;;8.58;82.48;97252.06;4983648;28;20141;-73
2023/04/08 03:54:19;;;;;;;0.40;0.40;;;;;;;8.21;83.72;97256.09;4982637;28;20050;-71
2023/04/08 03:56:45;;;;;;;0.40;0.40;;;;;;;7.93;84.68;97258.00;4982334;28;20062;-72
2023/04/08 03:59:12;;;;;;;0.40;0.40;;;;;;;7.70;87.30;97255.75;4983553;28;20058;-72
2023/04/08 04:01:38;;;;;;;0.32;0.32;;;;;;;7.97;86.93;97245.09;4970929;28;20114;-72
2023/04/08 04:04:07;;;;;;;0.40;0.40;;;;;;;8.26;85.16;97247.59;4964201;28;20054;-60
2023/04/08 04:06:34;;;;;;;0.30;0.30;;;;;;;7.74;87.39;97256.66;4963908;28;20118;-60
2023/04/08 04:09:01;;;;;;;0.30;0.30;;;;;;;7.72;88.24;97241.59;4964147;28;20572;-61
2023/04/08 04:11:28;;;;;;;0.30;0.30;;;;;;;7.49;89.34;97249.53;4963391;28;20051;-60
2023/04/08 04:13:54;;;;;;;0.30;0.30;;;;;;;6.87;91.54;97187.69;4964852;28;20470;-61
2023/04/08 04:16:21;;;;;;;0.40;0.40;;;;;;;6.97;91.64;97149.47;4982228;28;20433;-59
2023/04/08 04:18:48;;;;;;;0.30;0.30;;;;;;;7.33;92.93;97256.91;4967823;28;20086;-59
2023/04/08 04:21:15;;;;;;;0.35;0.35;;;;;;;6.74;93.96;97200.63;4966853;28;20070;-59
2023/04/08 04:23:42;;;;;;;0.38;0.38;;;;;;;7.23;93.79;97251.84;4966579;28;20571;-60
2023/04/08 04:26:09;;;;;;;0.40;0.40;;;;;;;6.73;95.39;97196.28;4966494;28;20059;-59
2023/04/08 04:28:36;;;;;;;0.30;0.30;;;;;;;7.08;95.49;97244.25;4966177;28;20576;-59
2023/04/08 04:31:03;;;;;;;0.30;0.30;;;;;;;7.09;96.69;97256.09;4966739;28;20121;-59
2023/04/08 04:33:30;;;;;;;0.30;0.30;;;;;;;7.18;96.56;97254.84;4966733;28;20054;-60
2023/04/08 04:35:57;;;;;;;0.30;0.30;;;;;;;6.97;97.44;97254.09;4966785;28;20496;-59
2023/04/08 04:38:23;;;;;;;0.30;0.30;;;;;;;6.42;98.66;97176.69;4966250;28;20137;-60
2023/04/08 04:40:50;;;;;;;0.30;0.30;;;;;;;7.04;97.93;97242.53;4967665;28;20051;-59
2023/04/08 04:43:17;;;;;;;0.30;0.30;;;;;;;6.99;99.00;97245.50;4967536;28;20145;-61
2023/04/08 04:45:44;;;;;;;0.32;0.32;;;;;;;7.15;98.71;97250.00;4967386;28;20050;-58
2023/04/08 04:48:10;;;;;;;0.30;0.30;;;;;;;7.08;97.50;97224.97;4967494;28;20078;-59
2023/04/08 04:50:37;;;;;;;0.30;0.30;;;;;;;6.62;96.85;97170.34;4966839;28;20047;-61
2023/04/08 04:53:04;;;;;;;0.40;0.40;;;;;;;7.33;97.93;97254.13;4967406;28;20114;-59
2023/04/08 04:55:31;;;;;;;0.40;0.40;;;;;;;7.57;94.70;97251.38;4966633;28;20050;-58
2023/04/08 04:57:57;;;;;;;0.30;0.30;;;;;;;7.64;94.70;97265.41;4974039;28;20579;-59
2023/04/08 05:00:24;;;;;;;0.30;0.30;;;;;;;7.46;93.32;97186.84;4985752;28;20062;-59
2023/04/08 05:02:50;;;;;;;0.40;0.40;;;;;;;8.05;92.42;97238.66;4986603;28;20054;-59
2023/04/08 05:05:17;;;;;;;0.40;0.40;;;;;;;8.46;90.62;97260.38;4984943;28;20064;-58
2023/04/08 05:07:44;;;;;;;0.30;0.30;;;;;;;8.47;88.75;97234.41;4986406;28;20050;-58
2023/04/08 05:10:11;;;;;;;0.40;0.40;;;;;;;6.21;87.92;96878.16;4986331;28;20046;-58
2023/04/08 05:12:37;;;;;;;0.40;0.40;;;;;;;8.15;88.50;97260.25;4986564;28;20058;-60
2023/04/08 05:15:05;;;;;;;0.40;0.40;;;;;;;8.37;89.55;97257.00;4986432;28;20055;-59
2023/04/08 05:17:32;;;;;;;0.40;0.40;;;;;;;8.08;87.34;97169.03;4985818;28;20492;-59
2023/04/08 05:19:59;;;;;;;0.40;0.40;;;;;;;8.58;86.38;97202.38;4985547;28;20077;-60
2023/04/08 05:22:26;;;;;;;0.40;0.40;;;;;;;8.71;84.94;97192.88;4984511;28;20058;-59
2023/04/08 05:24:52;;;;;;;0.40;0.40;;;;;;;8.84;83.42;97213.72;4974980;28;20203;-60
2023/04/08 05:27:20;;;;;;;0.50;0.50;;;;;;;9.21;83.01;97256.53;4974685;28;20223;-59
2023/04/08 05:29:47;;;;;;;0.40;0.40;;;;;;;9.32;83.05;97254.84;4974564;28;20165;-62
2023/04/08 05:32:15;;;;;;;0.50;0.50;;;;;;;9.43;82.59;97255.91;4975477;28;20548;-59
2023/04/08 05:34:42;;;;;;;0.40;0.40;;;;;;;9.48;82.16;97266.72;4976440;28;20058;-61
2023/04/08 05:37:09;;;;;;;0.45;0.45;;;;;;;9.63;81.07;97270.59;4981049;28;20054;-60
2023/04/08 05:39:36;;;;;;;0.50;0.50;;;;;;;9.66;80.41;97262.38;4984775;28;20058;-59
2023/04/08 05:42:02;;;;;;;0.50;0.50;;;;;;;9.59;80.37;97237.34;4984832;28;20477;-59
2023/04/08 05:44:29;;;;;;;0.45;0.45;;;;;;;9.89;79.48;97268.88;4984161;28;20587;-59
2023/04/08 05:46:57;;;;;;;0.50;0.50;;;;;;;9.95;78.17;97272.97;4982684;28;20129;-60
2023/04/08 05:49:23;;;;;;;0.45;0.45;;;;;;;9.68;78.13;97234.38;4984302;28;20246;-58
2023/04/08 05:51:50;;;;;;;0.50;0.50;;;;;;;9.93;78.01;97255.09;4984264;28;20544;-59
2023/04/08 05:54:17;;;;;;;0.40;0.40;;;;;;;10.18;77.30;97279.44;4984057;28;20058;-58
2023/04/08 05:56:45;;;;;;;0.50;0.50;;;;;;;10.20;75.57;97254.97;4984298;28;20469;-58
2023/04/08 05:59:11;;;;;;;0.50;0.50;;;;;;;10.00;75.17;97264.41;4979507;28;20054;-59
2023/04/08 06:01:38;;;;;;;0.50;0.50;;;;;;;9.86;75.92;97225.34;4983922;28;20073;-61
2023/04/08 06:04:05;;;;;;;0.50;0.50;;;;;;;10.06;75.34;97265.72;4968343;28;20206;-58
2023/04/08 06:06:32;;;;;;;0.50;0.50;;;;;;;10.12;75.96;97275.34;4978821;28;20065;-58
2023/04/08 06:08:59;;;;;;;0.50;0.50;;;;;;;10.21;75.25;97275.94;4964677;28;20047;-59
2023/04/08 06:11:25;;;;;;;0.40;0.40;;;;;;;9.89;76.27;97279.94;4965615;28;20100;-61
2023/04/08 06:13:52;;;;;;;0.50;0.50;;;;;;;7.81;75.72;96951.97;4969452;28;20057;-58
2023/04/08 06:16:19;;;;;;;0.50;0.50;;;;;;;10.09;74.77;97284.38;4974889;28;20519;-59
2023/04/08 06:18:47;;;;;;;0.45;0.45;;;;;;;9.96;74.76;97246.88;4985203;28;20161;-62
2023/04/08 06:21:15;;;;;;;0.50;0.50;;;;;;;8.57;74.63;97013.03;4985110;28;20202;-62
2023/04/08 06:23:41;;;;;;;0.50;0.50;;;;;;;10.31;74.37;97285.66;4978525;28;20055;-58
2023/04/08 06:26:08;;;;;;;0.50;0.50;;;;;;;9.81;74.51;97181.34;4978659;28;20046;-71
2023/04/08 06:28:35;;;;;;;0.57;0.57;;;;;;;8.44;74.06;96981.19;4978695;28;20082;-63
2023/04/08 06:31:01;;;;;;;0.50;0.50;;;;;;;9.83;74.40;97165.16;4970748;28;20054;-74
2023/04/08 06:33:28;;;;;;;0.50;0.50;;;;;;;10.32;73.26;97254.84;4979768;28;20065;-59
2023/04/08 06:36:06;;;;;;;0.50;0.50;;;;;;;10.46;73.37;97271.75;4975585;28;20349;-56
2023/04/08 06:38:33;;;;;;;0.50;0.50;;;;;;;10.52;73.10;97288.88;4981892;28;20133;-58
2023/04/08 06:41:06;;;;;;;0.50;0.50;;;;;;;10.62;73.21;97294.63;4980158;28;20050;-69
2023/04/08 06:43:35;;;;;;;0.50;0.50;;;;;;;10.73;72.99;97290.13;4975664;28;20073;-72
2023/04/08 06:46:02;;;;;;;0.50;0.50;;;;;;;10.48;72.61;97236.19;4965747;28;20136;-64
2023/04/08 06:48:29;;;;;;;0.50;0.50;;;;;;;11.05;71.10;97309.34;4964018;28;20077;-61
2023/04/08 06:50:58;;;;;;;0.50;0.50;;;;;;;11.10;71.30;97295.19;4966407;28;20521;-63
2023/04/08 06:53:28;;;;;;;0.57;0.57;;;;;;;11.08;70.90;97297.53;4973142;28;20047;-63
2023/04/08 06:55:54;;;;;;;0.50;0.50;;;;;;;10.99;69.97;97263.69;4964957;28;20058;-58
2023/04/08 06:58:21;;;;;;;0.50;0.50;;;;;;;11.32;69.52;97299.94;4965064;28;20137;-57
2023/04/08 07:00:48;;;;;;;0.50;0.50;;;;;;;11.28;69.84;97301.88;4965109;28;20051;-67
2023/04/08 07:03:15;;;;;;;0.50;0.50;;;;;;;11.43;69.12;97300.97;4965180;28;20054;-68
2023/04/08 07:05:43;;;;;;;0.50;0.50;;;;;;;11.57;68.95;97292.88;4964597;28;20516;-66
2023/04/08 07:08:10;;;;;;;0.50;0.50;;;;;;;11.75;69.14;97302.31;4980375;28;20057;-57
2023/04/08 07:10:37;;;;;;;0.50;0.50;;;;;;;11.09;69.01;97208.47;4984847;28;20054;-58
2023/04/08 07:13:03;;;;;;;0.50;0.50;;;;;;;11.44;67.42;97247.09;4982658;28;20497;-73
2023/04/08 07:15:30;;;;;;;0.60;0.60;;;;;;;11.68;66.63;97271.69;4977490;28;20065;-68
2023/04/08 07:17:57;;;;;;;0.50;0.50;;;;;;;12.34;66.85;97299.69;4968005;28;20562;-65
2023/04/08 07:20:24;;;;;;;0.52;0.52;;;;;;;11.92;65.56;97258.19;4974149;28;20169;-57
2023/04/08 07:22:51;;;;;;;0.60;0.60;;;;;;;10.87;66.37;97194.56;4963583;28;20467;-65
2023/04/08 07:25:18;;;;;;;0.50;0.50;;;;;;;11.46;67.75;97314.09;4964970;28;20133;-57
2023/04/08 07:27:45;;;;;;;0.52;0.52;;;;;;;11.41;68.82;97292.19;4971420;28;20155;-74
2023/04/08 07:30:11;;;;;;;0.50;0.50;;;;;;;11.90;68.39;97306.94;4978951;28;20057;-57
2023/04/08 07:32:38;;;;;;;0.50;0.50;;;;;;;12.12;66.83;97281.09;4972288;28;20077;-57
2023/04/08 07:35:05;;;;;;;0.50;0.50;;;;;;;12.47;66.23;97297.47;4974782;28;20165;-69
2023/04/08 07:37:32;;;;;;;0.60;0.60;;;;;;;12.74;65.13;97299.81;4974002;28;20113;-55
2023/04/08 07:39:58;;;;;;;0.50;0.50;;;;;;;11.24;64.32;97046.69;4970452;28;20161;-56
2023/04/08 07:42:26;;;;;;;0.60;0.60;;;;;;;13.20;64.18;97301.19;4966132;28;20070;-56
2023/04/08 07:44:52;;;;;;;0.50;0.50;;;;;;;11.59;66.96;97296.06;4979665;28;20661;-69
2023/04/08 07:47:19;;;;;;;0.50;0.50;;;;;;;11.30;70.46;97305.06;4969813;28;20496;-55
2023/04/08 07:49:47;;;;;;;0.50;0.50;;;;;;;11.29;68.59;97236.91;4972482;28;20074;-59
2023/04/08 07:52:14;;;;;;;0.50;0.50;;;;;;;11.81;66.75;97350.78;4969438;28;20490;-64
2023/04/08 07:54:41;;;;;;;0.55;0.55;;;;;;;11.67;67.97;97268.09;4969137;28;20055;-61
2023/04/08 07:57:07;;;;;;;0.60;0.60;;;;;;;12.36;66.30;97302.88;4969947;28;20065;-62
2023/04/08 07:59:34;;;;;;;0.60;0.60;;;;;;;12.60;65.82;97310.75;4968340;28;20051;-65
2023/04/08 08:02:01;;;;;;;0.50;0.50;;;;;;;11.82;66.04;97271.91;4968148;28;20059;-64
2023/04/08 08:04:28;;;;;;;0.50;0.50;;;;;;;11.84;68.62;97313.97;4967925;28;20047;-60
2023/04/08 08:06:55;;;;;;;0.60;0.60;;;;;;;11.69;68.74;97312.13;4968125;28;20078;-58
2023/04/08 08:09:22;;;;;;;0.60;0.60;;;;;;;11.76;67.79;97310.28;4978103;28;20101;-58
2023/04/08 08:11:49;;;;;;;0.50;0.50;;;;;;;10.30;72.12;97262.72;4969930;28;20164;-55
2023/04/08 08:14:15;;;;;;;0.50;0.50;;;;;;;10.68;71.22;97234.22;4968621;28;20108;-67
2023/04/08 08:16:43;;;;;;;0.60;0.60;;;;;;;11.05;70.95;97276.88;4985382;28;20204;-62
2023/04/08 08:19:12;;;;;;;0.50;0.50;;;;;;;10.67;71.22;97274.97;4986976;28;20504;-57
2023/04/08 08:21:40;;;;;;;0.50;0.50;;;;;;;10.37;74.88;97321.00;4986318;28;20089;-56
2023/04/08 08:24:06;;;;;;;0.50;0.50;;;;;;;10.18;74.82;97332.03;4987504;28;20050;-57
2023/04/08 08:26:35;;;;;;;0.50;0.50;;;;;;;10.18;75.16;97326.50;4982618;28;20105;-56
2023/04/08 08:29:03;;;;;;;0.50;0.50;;;;;;;10.08;75.56;97343.69;4966925;28;20114;-56
2023/04/08 08:31:30;;;;;;;0.50;0.50;;;;;;;10.46;74.69;97335.44;4968109;28;20488;-59
2023/04/08 08:33:56;;;;;;;0.40;0.40;;;;;;;11.36;71.40;97337.69;4968307;28;20055;-56
2023/04/08 08:36:23;;;;;;;0.50;0.50;;;;;;;10.03;74.02;97296.88;4984101;28;20061;-59
2023/04/08 08:38:52;;;;;;;0.50;0.50;;;;;;;10.56;74.62;97336.84;4969794;28;20150;-57
2023/04/08 08:41:22;;;;;;;0.50;0.50;;;;;;;11.07;71.73;97309.78;4974060;28;20050;-55
2023/04/08 08:43:49;;;;;;;0.50;0.50;;;;;;;11.44;70.62;97321.97;4978419;28;20133;-63
2023/04/08 08:46:18;;;;;;;0.52;0.52;;;;;;;11.95;68.73;97326.03;4964784;28;20105;-63
2023/04/08 08:48:45;;;;;;;0.50;0.50;;;;;;;12.51;65.28;97288.00;4973598;28;20054;-57
2023/04/08 08:51:12;;;;;;;0.60;0.60;;;;;;;12.10;67.40;97327.88;4981790;28;20077;-66
2023/04/08 08:53:43;;;;;;;0.50;0.50;;;;;;;11.17;70.25;97317.50;4985627;28;20554;-65
2023/04/08 08:56:11;;;;;;;0.50;0.50;;;;;;;12.08;69.07;97313.56;4984654;28;20581;-64
2023/04/08 08:58:41;;;;;;;0.60;0.60;;;;;;;12.82;64.91;97265.34;4983106;28;20142;-66
2023/04/08 09:01:31;;;;;;;0.50;0.50;;;;;;;12.71;64.18;97322.81;4977709;28;20046;-58
2023/04/08 09:04:10;;;;;;;0.60;0.60;;;;;;;13.27;62.87;97320.75;4965317;28;20134;-73
2023/04/08 09:06:37;;;;;;;0.50;0.50;;;;;;;12.57;65.30;97313.47;4983060;28;20062;-71
2023/04/08 09:09:10;;;;;;;0.60;0.60;;;;;;;13.53;61.89;97315.03;4983025;28;20205;-58
2023/04/08 09:11:41;;;;;;;0.60;0.60;;;;;;;14.42;58.85;97308.22;4967801;28;20484;-59
2023/04/08 09:14:22;;;;;;;0.60;0.60;;;;;;;13.38;60.12;97215.91;4966460;28;20043;-58
2023/04/08 09:16:50;;;;;;;0.60;0.60;;;;;;;14.38;57.92;97318.56;4966227;28;20053;-60
2023/04/08 09:19:17;;;;;;;0.60;0.60;;;;;;;13.86;59.24;97313.34;4984388;28;20113;-65
2023/04/08 09:21:44;;;;;;;0.60;0.60;;;;;;;13.87;59.54;97314.94;4985255;28;20085;-58
2023/04/08 09:24:27;;;;;;;0.60;0.60;;;;;;;13.94;58.13;97289.94;4986970;28;20053;-57
2023/04/08 09:26:55;;;;;;;0.60;0.60;;;;;;;14.11;57.85;97306.00;4987074;28;20616;-58
2023/04/08 09:29:26;;;;;;;0.60;0.60;;;;;;;13.68;57.58;97213.78;4980065;28;20556;-59
2023/04/08 09:31:58;;;;;;;0.52;0.52;;;;;;;14.79;55.91;97311.63;4968049;28;20125;-66
2023/04/08 09:34:27;;;;;;;0.70;0.70;;;;;;;14.91;55.03;97208.06;4967362;28;20239;-70
2023/04/08 09:36:55;;;;;;;0.70;0.70;;;;;;;15.55;53.15;97304.75;4967261;28;20484;-68
2023/04/08 09:39:22;;;;;;;0.70;0.70;;;;;;;15.95;52.84;97311.97;4979859;28;20054;-70
2023/04/08 09:41:50;;;;;;;0.60;0.60;;;;;;;15.39;53.18;97301.50;4975842;28;20137;-65
2023/04/08 09:44:19;;;;;;;0.75;0.75;;;;;;;15.82;53.45;97307.97;4984467;28;20051;-59
2023/04/08 09:46:49;;;;;;;0.70;0.70;;;;;;;16.18;52.31;97298.38;4977088;28;20490;-58
2023/04/08 09:49:43;;;;;;;0.60;0.60;;;;;;;14.64;55.85;97304.38;4975674;28;20051;-58
2023/04/08 09:52:19;;;;;;;0.68;0.68;;;;;;;15.57;54.34;97302.31;4979254;28;20054;-58
2023/04/08 09:54:58;;;;;;;0.73;0.73;;;;;;;16.14;52.29;97301.16;5002107;28;20050;-57
2023/04/08 09:57:35;;;;;;;0.70;0.70;;;;;;;16.63;50.82;97302.34;4999654;28;20042;-57
2023/04/08 10:00:33;;;;;;;0.70;0.70;;;;;;;16.75;49.77;97294.31;4972551;28;20135;-58
2023/04/08 10:03:20;;;;;;;0.75;0.75;;;;;;;16.93;48.96;97249.47;4966797;28;20293;-57
2023/04/08 10:05:48;;;;;;;0.80;0.80;;;;;;;17.66;47.02;97259.44;4966566;28;20058;-58
2023/04/08 10:08:15;;;;;;;0.80;0.80;;;;;;;17.83;47.04;97264.16;4964878;28;20058;-59
2023/04/08 10:10:42;;;;;;;0.80;0.80;;;;;;;17.66;45.92;97175.41;4965726;28;20532;-58
2023/04/08 10:13:10;;;;;;;0.85;0.85;;;;;;;18.06;45.17;97222.28;4966015;28;20425;-57
2023/04/08 10:15:39;;;;;;;0.80;0.80;;;;;;;17.95;44.70;97227.19;4968821;28;20514;-57
2023/04/08 10:18:09;;;;;;;0.80;0.80;;;;;;;17.80;46.21;97259.34;4984014;28;20058;-56
2023/04/08 10:20:35;;;;;;;0.80;0.80;;;;;;;17.38;46.83;97259.63;4982139;28;20038;-56
2023/04/08 10:23:07;;;;;;;0.80;0.80;;;;;;;16.63;47.88;97264.75;4985426;28;20116;-57
2023/04/08 10:25:40;;;;;;;0.70;0.70;;;;;;;15.71;49.37;97268.84;4984849;28;20058;-57
2023/04/08 10:28:10;;;;;;;0.70;0.70;;;;;;;15.09;51.41;97270.31;4985523;28;20042;-56
2023/04/08 10:30:49;;;;;;;0.60;0.60;;;;;;;14.88;52.21;97175.38;4985024;28;20233;-56
2023/04/08 10:33:21;;;;;;;0.70;0.70;;;;;;;15.40;52.34;97257.63;4985118;28;20054;-57
2023/04/08 10:35:48;;;;;;;0.60;0.60;;;;;;;13.95;54.25;97244.19;4977435;28;20229;-58
2023/04/08 10:38:16;;;;;;;0.70;0.70;;;;;;;13.68;55.35;97263.91;4985529;28;20053;-56
2023/04/08 10:40:44;;;;;;;0.63;0.63;;;;;;;14.96;53.58;97249.53;4979264;28;20082;-56
2023/04/08 10:43:13;;;;;;;0.70;0.70;;;;;;;15.80;51.29;97243.31;4970090;28;20569;-57
2023/04/08 10:45:40;;;;;;;0.70;0.70;;;;;;;15.81;49.74;97228.94;4965739;28;20059;-57
2023/04/08 10:48:27;;;;;;;0.63;0.63;;;;;;;15.23;51.71;97248.00;4965882;28;20149;-58
2023/04/08 10:50:56;;;;;;;0.65;0.65;;;;;;;13.84;53.13;97155.03;4964050;28;20055;-57
2023/04/08 10:53:29;;;;;;;0.60;0.60;;;;;;;15.00;51.74;97233.63;4965707;28;20055;-59
2023/04/08 10:56:13;;;;;;;0.63;0.63;;;;;;;14.67;52.80;97242.22;4965780;28;20086;-57
2023/04/08 10:58:48;;;;;;;0.60;0.60;;;;;;;13.44;54.69;97175.41;4965681;28;20089;-57
2023/04/08 11:01:15;;;;;;;0.70;0.70;;;;;;;14.54;54.46;97232.66;4984813;28;20077;-57
2023/04/08 11:03:42;;;;;;;0.60;0.60;;;;;;;14.63;51.96;97219.94;4985024;28;20054;-57
2023/04/08 11:06:10;;;;;;;0.60;0.60;;;;;;;14.43;53.75;97220.66;4982920;28;20054;-57
2023/04/08 11:08:37;;;;;;;0.60;0.60;;;;;;;14.78;53.14;97223.56;4983066;28;20057;-57
2023/04/08 11:11:09;;;;;;;0.70;0.70;;;;;;;14.18;53.90;97219.69;4984539;28;20497;-57
2023/04/08 11:13:43;;;;;;;0.60;0.60;;;;;;;14.68;53.63;97225.16;4984814;28;20105;-57
2023/04/08 11:16:20;;;;;;;0.70;0.70;;;;;;;14.40;53.85;97211.06;4983419;28;20402;-56
2023/04/08 11:18:48;;;;;;;0.60;0.60;;;;;;;13.80;55.87;97220.22;4983595;28;20050;-56
2023/04/08 11:21:16;;;;;;;0.63;0.63;;;;;;;13.30;57.83;97219.00;4984655;28;20476;-57
2023/04/08 11:23:42;;;;;;;0.60;0.60;;;;;;;14.48;54.78;97206.34;4983950;28;20054;-58
2023/04/08 11:26:10;;;;;;;0.60;0.60;;;;;;;14.27;54.49;97192.28;4984280;28;20105;-58
2023/04/08 11:28:37;;;;;;;0.60;0.60;;;;;;;14.43;55.14;97199.13;4984578;28;20555;-58
2023/04/08 11:31:04;;;;;;;0.60;0.60;;;;;;;14.52;53.30;97165.31;4983198;28;20573;-59
2023/04/08 11:33:32;;;;;;;0.70;0.70;;;;;;;14.90;52.47;97206.47;4983352;28;20047;-57
2023/04/08 11:36:00;;;;;;;0.60;0.60;;;;;;;15.00;52.47;97205.72;4984488;28;20054;-57
2023/04/08 11:38:28;;;;;;;0.70;0.70;;;;;;;14.51;51.44;97049.44;4984604;28;20050;-59
2023/04/08 11:41:00;;;;;;;0.70;0.70;;;;;;;14.54;53.12;97126.72;4982443;28;20482;-58
2023/04/08 11:43:27;;;;;;;0.70;0.70;;;;;;;15.27;50.71;97192.97;4981860;28;20531;-57
2023/04/08 11:45:54;;;;;;;0.70;0.70;;;;;;;15.02;49.39;97091.72;4981106;28;20094;-58